Terminal Aerodrome Forecast
Issued by NWS North Platte, NE

Home | Current Version | Previous Version | Text Only | Print | Product List | Glossary On
Versions: 1 2 3 4 5 6 7 8 9 10 11 12 13 14 15 16 17 18 19
000
FTUS43 KLBF 262300
TAFLBF
TAF
KLBF 262336Z 2700/2724 VRB03KT P6SM FEW070
     FM271300 15008KT P6SM SCT040 BKN090
     FM271700 18011G17KT P6SM BKN040 OVC090
      TEMPO 2717/2721 -TSRA BKN040CB=

USA.gov is the U.S. government's official web portal to all federal, state and local government web resources and services.